Time;durP1;ratioP1;P1;durP2;ratioP2;P2;SDS_P1;SDS_P2;PMS_P1;PMS_P2;Temp;Humidity;BMP_temperature;BMP_pressure;BME280_temperature;BME280_humidity;BME280_pressure;Samples;Min_cycle;Max_cycle;Signal;HPM_P1;HPM_P2
2023/05/28 00:01:01;;;;;;;;;;;;;;;20.93;72.32;100689.94;7398499;19;1383;-48
2023/05/28 00:03:31;;;;;;;;;;;;;;;20.85;72.63;100706.78;7393947;19;1896;-47
2023/05/28 00:05:59;;;;;;;;;;;;;;;20.90;72.58;100698.28;7397903;19;1753;-48
2023/05/28 00:08:30;;;;;;;;;;;;;;;20.94;72.38;100696.97;7395346;19;1458;-48
2023/05/28 00:10:59;;;;;;;;;;;;;;;20.86;72.41;100678.91;7397355;19;1523;-47
2023/05/28 00:13:28;;;;;;;;;;;;;;;20.91;72.64;100686.53;7396809;19;1557;-47
2023/05/28 00:15:56;;;;;;;;;;;;;;;20.96;72.28;100688.78;7396399;19;1737;-47
2023/05/28 00:18:25;;;;;;;;;;;;;;;20.96;72.41;100681.53;7396519;19;1543;-48
2023/05/28 00:20:53;;;;;;;;;;;;;;;21.01;72.23;100681.94;7396383;19;1438;-47
2023/05/28 00:23:21;;;;;;;;;;;;;;;20.92;72.17;100690.06;7394642;19;1857;-47
2023/05/28 00:25:52;;;;;;;;;;;;;;;20.93;72.28;100684.53;7395839;19;1931;-47
2023/05/28 00:28:20;;;;;;;;;;;;;;;20.89;72.31;100688.53;7396424;19;1739;-47
2023/05/28 00:30:49;;;;;;;;;;;;;;;20.85;72.73;100679.09;7398511;19;1051;-47
2023/05/28 00:33:17;;;;;;;;;;;;;;;20.82;72.55;100682.88;7397527;19;1828;-47
2023/05/28 00:35:45;;;;;;;;;;;;;;;20.78;72.70;100680.66;7395148;19;1963;-47
2023/05/28 00:38:13;;;;;;;;;;;;;;;20.76;72.65;100682.66;7394425;19;1569;-47
2023/05/28 00:40:45;;;;;;;;;;;;;;;20.76;72.52;100674.59;7395829;19;1575;-47
2023/05/28 00:43:16;;;;;;;;;;;;;;;20.83;72.38;100667.59;7392852;19;2168;-47
2023/05/28 00:45:44;;;;;;;;;;;;;;;20.83;72.35;100672.97;7395768;19;1611;-46
2023/05/28 00:48:12;;;;;;;;;;;;;;;20.82;72.30;100664.06;7396073;19;1455;-47
2023/05/28 00:50:41;;;;;;;;;;;;;;;20.82;72.51;100674.81;7395394;19;1881;-47
2023/05/28 00:53:10;;;;;;;;;;;;;;;20.79;72.88;100658.16;7394556;19;1470;-47
2023/05/28 00:55:39;;;;;;;;;;;;;;;20.81;72.63;100654.34;7396917;19;967;-47
2023/05/28 00:58:07;;;;;;;;;;;;;;;20.83;72.59;100651.47;7395790;19;1774;-47
2023/05/28 01:00:39;;;;;;;;;;;;;;;20.80;72.47;100646.41;7395817;19;1935;-47
2023/05/28 01:03:07;;;;;;;;;;;;;;;20.78;72.78;100665.38;7394128;19;1952;-47
2023/05/28 01:05:36;;;;;;;;;;;;;;;20.77;72.88;100642.19;7395156;19;1825;-47
2023/05/28 01:08:06;;;;;;;;;;;;;;;20.76;72.51;100658.47;7395477;19;1691;-47
2023/05/28 01:10:34;;;;;;;;;;;;;;;20.74;72.63;100647.84;7395961;19;1395;-47
2023/05/28 01:13:03;;;;;;;;;;;;;;;20.79;72.81;100652.78;7395383;19;1594;-47
2023/05/28 01:15:32;;;;;;;;;;;;;;;20.91;72.46;100659.66;7394865;19;1755;-48
2023/05/28 01:18:04;;;;;;;;;;;;;;;20.84;72.49;100653.19;7395050;19;1561;-47
2023/05/28 01:20:33;;;;;;;;;;;;;;;20.76;72.73;100645.03;7398152;19;1493;-47
2023/05/28 01:23:03;;;;;;;;;;;;;;;20.73;72.83;100656.06;7400463;19;1868;-47
2023/05/28 01:25:37;;;;;;;;;;;;;;;20.76;72.34;100648.56;7400130;19;1553;-47
2023/05/28 01:28:12;;;;;;;;;;;;;;;20.82;72.51;100644.44;7402977;19;1418;-47
2023/05/28 01:30:43;;;;;;;;;;;;;;;20.75;72.60;100643.31;7402865;19;1786;-47
2023/05/28 01:33:11;;;;;;;;;;;;;;;20.80;72.61;100641.03;7401401;19;1402;-47
2023/05/28 01:35:40;;;;;;;;;;;;;;;20.83;72.47;100648.78;7403444;19;1120;-47
2023/05/28 01:38:09;;;;;;;;;;;;;;;20.83;72.22;100643.41;7400493;19;2089;-47
2023/05/28 01:40:41;;;;;;;;;;;;;;;20.80;72.38;100632.97;7401124;19;1843;-47
2023/05/28 01:43:09;;;;;;;;;;;;;;;20.86;71.94;100643.13;7400774;19;1847;-47
2023/05/28 01:45:37;;;;;;;;;;;;;;;20.83;71.92;100630.84;7402152;19;1723;-47
2023/05/28 01:48:06;;;;;;;;;;;;;;;20.89;72.06;100653.59;7402934;19;1568;-47
2023/05/28 01:50:35;;;;;;;;;;;;;;;20.92;71.71;100626.38;7402378;19;1785;-47
2023/05/28 01:53:03;;;;;;;;;;;;;;;20.93;71.79;100646.03;7402735;19;1758;-47
2023/05/28 01:55:32;;;;;;;;;;;;;;;20.87;72.02;100644.84;7403159;19;998;-47
2023/05/28 01:58:03;;;;;;;;;;;;;;;20.92;71.89;100633.63;7400749;19;1841;-47
2023/05/28 02:00:32;;;;;;;;;;;;;;;20.93;71.83;100649.59;7401754;19;1870;-47
2023/05/28 02:03:00;;;;;;;;;;;;;;;20.91;71.60;100646.22;7398310;19;1871;-47
2023/05/28 02:05:29;;;;;;;;;;;;;;;20.80;72.13;100643.72;7402170;19;1782;-47
2023/05/28 02:07:58;;;;;;;;;;;;;;;20.86;71.75;100651.19;7401694;19;1402;-47
2023/05/28 02:10:26;;;;;;;;;;;;;;;20.83;72.09;100638.03;7400605;19;1723;-48
2023/05/28 02:12:55;;;;;;;;;;;;;;;20.77;72.38;100641.31;7402045;19;1494;-48
2023/05/28 02:15:26;;;;;;;;;;;;;;;20.78;72.34;100653.78;7399830;19;1702;-47
2023/05/28 02:17:54;;;;;;;;;;;;;;;20.83;72.21;100660.41;7399616;19;1289;-47
2023/05/28 02:20:22;;;;;;;;;;;;;;;20.83;72.28;100646.97;7401065;19;1376;-47
2023/05/28 02:22:50;;;;;;;;;;;;;;;20.79;72.40;100644.72;7400012;19;1841;-47
2023/05/28 02:25:20;;;;;;;;;;;;;;;20.77;72.32;100658.31;7397834;19;1735;-47
2023/05/28 02:27:49;;;;;;;;;;;;;;;20.74;72.38;100657.78;7399817;19;1461;-47
2023/05/28 02:30:17;;;;;;;;;;;;;;;20.79;72.45;100659.03;7400908;19;1196;-47
2023/05/28 02:32:48;;;;;;;;;;;;;;;20.73;72.63;100653.38;7399941;19;1478;-48
2023/05/28 02:35:18;;;;;;;;;;;;;;;20.79;72.25;100658.16;7400935;19;2073;-48
2023/05/28 02:37:46;;;;;;;;;;;;;;;20.71;72.51;100641.94;7397445;19;1896;-47
2023/05/28 02:40:14;;;;;;;;;;;;;;;20.70;72.43;100654.53;7400583;19;1746;-48
2023/05/28 02:42:43;;;;;;;;;;;;;;;20.71;72.47;100652.69;7398301;19;1855;-48
2023/05/28 02:45:11;;;;;;;;;;;;;;;20.73;72.39;100656.06;7400832;19;1557;-48
2023/05/28 02:47:40;;;;;;;;;;;;;;;20.75;72.20;100656.75;7400858;19;1118;-48
2023/05/28 02:50:11;;;;;;;;;;;;;;;20.80;72.31;100657.16;7399303;19;1961;-48
2023/05/28 02:52:40;;;;;;;;;;;;;;;20.77;72.36;100644.03;7399912;19;1968;-47
2023/05/28 02:55:09;;;;;;;;;;;;;;;20.26;72.56;100579.09;7398992;19;1509;-48
2023/05/28 02:57:37;;;;;;;;;;;;;;;20.78;72.18;100664.53;7399087;19;1406;-48
2023/05/28 03:00:08;;;;;;;;;;;;;;;20.82;72.44;100655.19;7399260;19;1383;-48
2023/05/28 03:02:37;;;;;;;;;;;;;;;20.87;72.26;100658.28;7398804;19;1842;-48
2023/05/28 03:05:05;;;;;;;;;;;;;;;20.77;72.29;100662.81;7399331;19;1455;-48
2023/05/28 03:07:36;;;;;;;;;;;;;;;20.80;72.17;100660.69;7398144;19;1726;-47
2023/05/28 03:10:05;;;;;;;;;;;;;;;20.83;72.20;100656.84;7397817;19;1745;-48
2023/05/28 03:12:33;;;;;;;;;;;;;;;20.84;71.77;100661.25;7399490;19;1699;-47
2023/05/28 03:15:02;;;;;;;;;;;;;;;20.89;71.92;100677.78;7399274;19;1589;-48
2023/05/28 03:17:30;;;;;;;;;;;;;;;20.84;72.00;100663.94;7397882;19;1828;-48
2023/05/28 03:19:58;;;;;;;;;;;;;;;20.78;72.26;100664.53;7398632;19;1449;-48
2023/05/28 03:22:27;;;;;;;;;;;;;;;20.79;72.29;100668.91;7399815;19;1866;-48
2023/05/28 03:24:58;;;;;;;;;;;;;;;20.74;72.04;100663.97;7397736;19;1588;-48
2023/05/28 03:27:27;;;;;;;;;;;;;;;20.77;72.27;100678.94;7397922;19;1514;-52
2023/05/28 03:29:55;;;;;;;;;;;;;;;20.73;72.44;100669.50;7398091;19;1509;-48
2023/05/28 03:32:23;;;;;;;;;;;;;;;20.75;72.51;100710.50;7399193;19;1903;-48
2023/05/28 03:34:51;;;;;;;;;;;;;;;20.79;72.31;100679.66;7398394;19;1450;-47
2023/05/28 03:37:20;;;;;;;;;;;;;;;20.71;72.44;100684.94;7398429;19;1637;-47
2023/05/28 03:39:48;;;;;;;;;;;;;;;20.71;72.62;100676.88;7397688;19;1675;-48
2023/05/28 03:42:19;;;;;;;;;;;;;;;20.80;72.15;100681.34;7395321;19;1441;-48
2023/05/28 03:44:47;;;;;;;;;;;;;;;20.78;72.37;100697.63;7396501;19;1842;-48
2023/05/28 03:47:15;;;;;;;;;;;;;;;20.82;71.86;100696.31;7398437;19;1035;-48
2023/05/28 03:49:43;;;;;;;;;;;;;;;20.81;72.23;100691.97;7397821;19;1494;-48
2023/05/28 03:52:12;;;;;;;;;;;;;;;20.74;72.32;100685.47;7397214;19;1473;-47
2023/05/28 03:54:40;;;;;;;;;;;;;;;20.82;72.03;100684.75;7396619;19;1502;-48
2023/05/28 03:57:08;;;;;;;;;;;;;;;20.83;72.01;100698.03;7396185;19;1442;-48
2023/05/28 03:59:40;;;;;;;;;;;;;;;20.82;72.28;100679.38;7397457;19;1374;-48
2023/05/28 04:02:08;;;;;;;;;;;;;;;20.80;72.18;100684.03;7397038;19;1797;-48
2023/05/28 04:04:36;;;;;;;;;;;;;;;20.75;72.08;100687.19;7395127;19;1845;-48
2023/05/28 04:07:05;;;;;;;;;;;;;;;20.78;72.18;100686.88;7396002;19;1345;-48
2023/05/28 04:09:33;;;;;;;;;;;;;;;20.75;72.02;100695.25;7396458;19;1466;-47
2023/05/28 04:12:02;;;;;;;;;;;;;;;20.75;72.23;100700.63;7397574;19;1821;-48
2023/05/28 04:14:30;;;;;;;;;;;;;;;20.77;72.03;100689.69;7397235;19;1426;-48
2023/05/28 04:17:01;;;;;;;;;;;;;;;20.75;71.90;100695.25;7396778;19;990;-48
2023/05/28 04:19:29;;;;;;;;;;;;;;;20.75;72.34;100697.06;7397287;19;1383;-48
2023/05/28 04:21:58;;;;;;;;;;;;;;;20.77;72.18;100689.69;7396339;19;1948;-47
2023/05/28 04:24:26;;;;;;;;;;;;;;;20.82;71.93;100703.56;7393784;19;1924;-48
2023/05/28 04:26:54;;;;;;;;;;;;;;;20.77;71.89;100705.81;7397849;19;1715;-48
2023/05/28 04:29:25;;;;;;;;;;;;;;;20.80;72.04;100700.16;7396683;19;1725;-47
2023/05/28 04:31:53;;;;;;;;;;;;;;;20.78;71.97;100699.47;7395456;19;1454;-47
2023/05/28 04:34:24;;;;;;;;;;;;;;;20.75;71.72;100691.69;7395964;19;1824;-48
2023/05/28 04:36:56;;;;;;;;;;;;;;;20.80;71.84;100705.53;7396690;19;1316;-48
2023/05/28 04:39:26;;;;;;;;;;;;;;;20.76;72.16;100706.84;7396175;19;1853;-48
2023/05/28 04:41:55;;;;;;;;;;;;;;;20.69;72.57;100700.34;7396977;19;1815;-47
2023/05/28 04:44:25;;;;;;;;;;;;;;;20.74;72.59;100711.50;7395125;19;1862;-47
2023/05/28 04:46:53;;;;;;;;;;;;;;;20.77;72.17;100713.88;7396497;19;1770;-48
2023/05/28 04:49:24;;;;;;;;;;;;;;;20.71;72.27;100706.41;7396568;19;1757;-47
2023/05/28 04:51:53;;;;;;;;;;;;;;;20.77;72.17;100700.44;7395567;19;1463;-47
2023/05/28 04:54:21;;;;;;;;;;;;;;;20.74;72.35;100703.47;7399951;19;1410;-47
2023/05/28 04:56:49;;;;;;;;;;;;;;;20.75;72.16;100710.50;7403131;19;1435;-48
2023/05/28 04:59:18;;;;;;;;;;;;;;;20.81;72.16;100726.03;7401496;19;1763;-47
2023/05/28 05:01:46;;;;;;;;;;;;;;;20.57;73.33;100708.59;7404206;19;1460;-48
2023/05/28 05:04:14;;;;;;;;;;;;;;;20.62;73.22;100725.13;7400420;19;1857;-48
2023/05/28 05:06:45;;;;;;;;;;;;;;;20.44;73.88;100702.69;7402690;19;1590;-48
2023/05/28 05:09:14;;;;;;;;;;;;;;;20.66;73.34;100714.94;7403844;19;1474;-47
2023/05/28 05:11:42;;;;;;;;;;;;;;;20.73;73.46;100715.19;7403835;19;1253;-47
2023/05/28 05:14:10;;;;;;;;;;;;;;;20.75;73.84;100718.56;7402274;19;1168;-49
2023/05/28 05:16:38;;;;;;;;;;;;;;;20.75;73.65;100734.69;7401762;19;1573;-48
2023/05/28 05:19:07;;;;;;;;;;;;;;;20.66;73.75;100726.53;7400267;19;1540;-49
2023/05/28 05:21:35;;;;;;;;;;;;;;;20.86;73.33;100723.75;7399979;19;1251;-48
2023/05/28 05:24:06;;;;;;;;;;;;;;;20.82;73.37;100717.00;7400435;19;1865;-49
2023/05/28 05:26:35;;;;;;;;;;;;;;;20.93;72.96;100727.56;7336777;19;13648;-49
2023/05/28 05:29:03;;;;;;;;;;;;;;;20.86;73.35;100721.91;7401035;19;1523;-49
2023/05/28 05:31:31;;;;;;;;;;;;;;;20.48;69.95;100714.84;7401368;19;1687;-49
2023/05/28 05:33:59;;;;;;;;;;;;;;;20.60;71.72;100716.38;7402627;19;1438;-49
2023/05/28 05:36:28;;;;;;;;;;;;;;;20.68;73.11;100717.47;7404109;19;1085;-47
2023/05/28 05:38:56;;;;;;;;;;;;;;;20.80;72.95;100710.91;7401459;19;1948;-51
2023/05/28 05:41:28;;;;;;;;;;;;;;;20.72;73.15;100722.41;7403056;19;1702;-50
2023/05/28 05:43:56;;;;;;;;;;;;;;;20.79;72.92;100728.03;7401040;19;1958;-51
2023/05/28 05:46:24;;;;;;;;;;;;;;;20.84;72.59;100723.06;7401753;19;1796;-49
2023/05/28 05:48:52;;;;;;;;;;;;;;;20.81;73.18;100731.41;7401338;19;1871;-51
2023/05/28 05:51:21;;;;;;;;;;;;;;;20.99;72.70;100736.84;7398572;19;1558;-49
2023/05/28 05:53:49;;;;;;;;;;;;;;;20.97;72.46;100726.25;7401235;19;1474;-51
2023/05/28 05:56:17;;;;;;;;;;;;;;;20.96;72.93;100726.41;7398023;19;1169;-50
2023/05/28 05:58:48;;;;;;;;;;;;;;;20.93;73.41;100721.31;7400737;19;1565;-51
2023/05/28 06:01:18;;;;;;;;;;;;;;;21.06;72.92;100714.59;7400643;19;1453;-50
2023/05/28 06:03:46;;;;;;;;;;;;;;;21.06;72.75;100728.03;7400689;19;1854;-51
2023/05/28 06:06:15;;;;;;;;;;;;;;;20.95;73.39;100719.31;7400419;19;1850;-50
2023/05/28 06:08:43;;;;;;;;;;;;;;;20.70;73.80;100727.09;7401995;19;1837;-50
2023/05/28 06:11:12;;;;;;;;;;;;;;;20.79;73.49;100733.41;7400981;19;2000;-50
2023/05/28 06:13:41;;;;;;;;;;;;;;;20.64;73.44;100736.56;7401086;19;1609;-52
2023/05/28 06:16:12;;;;;;;;;;;;;;;20.77;72.80;100733.56;7401483;19;1730;-51
2023/05/28 06:18:41;;;;;;;;;;;;;;;20.62;72.20;100724.28;6886041;19;10000362;-51
2023/05/28 06:21:10;;;;;;;;;;;;;;;20.57;72.43;100738.13;7384195;19;1458;-51
2023/05/28 06:23:38;;;;;;;;;;;;;;;20.53;72.46;100726.00;7393523;19;1896;-51
2023/05/28 06:26:06;;;;;;;;;;;;;;;20.55;72.13;100736.56;7392932;19;1920;-51
2023/05/28 06:28:35;;;;;;;;;;;;;;;20.52;72.32;100743.09;7393656;19;1336;-51
2023/05/28 06:31:03;;;;;;;;;;;;;;;20.50;72.38;100725.44;7390290;19;1470;-50
2023/05/28 06:33:35;;;;;;;;;;;;;;;20.51;72.33;100736.00;7391679;19;1570;-51
2023/05/28 06:36:03;;;;;;;;;;;;;;;20.52;72.23;100736.88;7394004;19;1527;-50
2023/05/28 06:38:31;;;;;;;;;;;;;;;20.46;72.20;100733.78;7393277;19;1727;-51
2023/05/28 06:40:59;;;;;;;;;;;;;;;20.54;71.90;100726.84;7395871;19;1597;-51
2023/05/28 06:43:28;;;;;;;;;;;;;;;20.59;71.54;100736.19;7396235;19;1849;-51
2023/05/28 06:45:56;;;;;;;;;;;;;;;20.65;71.57;100740.97;7399156;19;1636;-51
2023/05/28 06:48:25;;;;;;;;;;;;;;;20.72;71.67;100730.47;7400241;19;1855;-51
2023/05/28 06:50:56;;;;;;;;;;;;;;;20.97;70.98;100742.38;7399017;19;1584;-52
2023/05/28 06:53:24;;;;;;;;;;;;;;;20.72;73.08;100738.53;7399906;19;1498;-49
2023/05/28 06:55:53;;;;;;;;;;;;;;;20.74;72.89;100735.69;7400435;19;1776;-51
2023/05/28 06:58:21;;;;;;;;;;;;;;;20.77;72.96;100757.75;7400544;19;1051;-50
2023/05/28 07:00:49;;;;;;;;;;;;;;;20.90;72.71;100743.97;7400675;19;1936;-51
2023/05/28 07:03:18;;;;;;;;;;;;;;;20.92;72.45;100731.22;7398948;19;1950;-51
2023/05/28 07:05:46;;;;;;;;;;;;;;;20.60;73.06;100737.88;7397690;19;1978;-51
2023/05/28 07:08:17;;;;;;;;;;;;;;;20.80;72.31;100757.44;7400180;19;1796;-49
2023/05/28 07:10:45;;;;;;;;;;;;;;;20.98;71.82;100736.00;7395869;19;1525;-51
2023/05/28 07:13:14;;;;;;;;;;;;;;;20.94;72.16;100748.06;7397701;19;1627;-51
2023/05/28 07:15:42;;;;;;;;;;;;;;;20.79;72.65;100757.59;7397806;19;1482;-51
2023/05/28 07:18:10;;;;;;;;;;;;;;;20.88;72.67;100747.81;7395790;19;1555;-50
2023/05/28 07:20:39;;;;;;;;;;;;;;;21.00;71.93;100749.31;7396781;19;1750;-51
2023/05/28 07:23:07;;;;;;;;;;;;;;;21.10;71.61;100743.88;7395310;19;1654;-51
2023/05/28 07:25:38;;;;;;;;;;;;;;;21.21;71.21;100747.22;7395423;19;1866;-51
2023/05/28 07:28:06;;;;;;;;;;;;;;;21.04;72.09;100748.84;7398556;19;1615;-50
2023/05/28 07:30:34;;;;;;;;;;;;;;;20.97;72.63;100749.59;7398177;19;1435;-50
2023/05/28 07:33:03;;;;;;;;;;;;;;;21.08;72.15;100741.34;7388618;19;2793;-52
2023/05/28 07:35:31;;;;;;;;;;;;;;;21.26;71.66;100746.75;7391499;19;1630;-52
2023/05/28 07:37:59;;;;;;;;;;;;;;;21.22;71.55;100738.13;7390154;19;1869;-51
2023/05/28 07:40:28;;;;;;;;;;;;;;;21.24;71.81;100736.13;7391319;19;1627;-51
2023/05/28 07:42:58;;;;;;;;;;;;;;;21.15;71.84;100730.81;7393765;19;1486;-51
2023/05/28 07:45:27;;;;;;;;;;;;;;;21.16;71.62;100719.91;7391287;19;1878;-52
2023/05/28 07:47:55;;;;;;;;;;;;;;;21.33;71.64;100720.09;7396772;19;1640;-52
2023/05/28 07:50:23;;;;;;;;;;;;;;;21.52;70.95;100717.28;7398640;19;1058;-52
2023/05/28 07:52:52;;;;;;;;;;;;;;;21.41;71.52;100725.56;7399664;19;959;-51
2023/05/28 07:55:21;;;;;;;;;;;;;;;21.19;71.74;100716.94;7397233;19;1862;-49
2023/05/28 07:57:49;;;;;;;;;;;;;;;21.17;70.45;100727.00;7395415;19;1656;-49
2023/05/28 08:00:20;;;;;;;;;;;;;;;21.17;70.38;100731.50;7395504;19;1471;-51
2023/05/28 08:02:48;;;;;;;;;;;;;;;21.20;70.86;100713.22;7394176;19;1521;-51
2023/05/28 08:05:18;;;;;;;;;;;;;;;21.17;70.61;100691.16;7395116;19;1847;-50
2023/05/28 08:07:46;;;;;;;;;;;;;;;21.10;71.20;100719.69;7396077;19;1806;-51
2023/05/28 08:10:14;;;;;;;;;;;;;;;21.18;70.77;100714.38;7396199;19;1350;-51
2023/05/28 08:12:43;;;;;;;;;;;;;;;21.31;70.00;100714.00;7396926;19;1480;-51
2023/05/28 08:15:12;;;;;;;;;;;;;;;21.15;70.00;100717.38;7390320;19;1579;-51
2023/05/28 08:17:42;;;;;;;;;;;;;;;21.20;70.44;100712.41;7394618;19;1490;-51
2023/05/28 08:20:12;;;;;;;;;;;;;;;21.31;69.97;100696.06;7391855;19;1633;-50
2023/05/28 08:22:40;;;;;;;;;;;;;;;21.51;69.29;100698.63;7391508;19;1864;-51
2023/05/28 08:25:09;;;;;;;;;;;;;;;21.39;69.14;100693.44;7388612;19;1870;-50
2023/05/28 08:27:37;;;;;;;;;;;;;;;21.31;69.56;100697.88;7390992;19;1692;-51
2023/05/28 08:30:06;;;;;;;;;;;;;;;21.35;69.36;100697.44;7389658;19;1576;-50
2023/05/28 08:32:34;;;;;;;;;;;;;;;21.47;68.86;100689.16;7390095;19;1853;-50
2023/05/28 08:35:06;;;;;;;;;;;;;;;21.56;68.84;100707.06;7394113;19;1547;-50
2023/05/28 08:37:34;;;;;;;;;;;;;;;21.56;68.61;100696.31;7390684;19;1693;-50
2023/05/28 08:40:03;;;;;;;;;;;;;;;21.56;68.49;100690.94;7389839;19;1681;-50
2023/05/28 08:42:32;;;;;;;;;;;;;;;21.34;68.90;100700.28;7388264;19;1564;-50
2023/05/28 08:45:00;;;;;;;;;;;;;;;21.33;68.77;100685.97;7391116;19;1863;-56
2023/05/28 08:47:30;;;;;;;;;;;;;;;21.34;68.94;100682.28;7388231;19;1723;-50
2023/05/28 08:50:04;;;;;;;;;;;;;;;21.61;68.27;100697.53;7387642;19;1586;-50
2023/05/28 08:52:35;;;;;;;;;;;;;;;21.25;69.11;100693.97;7393496;19;1490;-51
2023/05/28 08:55:04;;;;;;;;;;;;;;;21.54;68.58;100701.00;7392488;19;1483;-51
2023/05/28 08:57:32;;;;;;;;;;;;;;;21.48;68.61;100678.25;7392895;19;1454;-50
2023/05/28 09:00:01;;;;;;;;;;;;;;;21.57;68.41;100677.31;7394381;19;1508;-50
2023/05/28 09:02:29;;;;;;;;;;;;;;;21.21;69.14;100682.66;7392797;19;1398;-51
2023/05/28 09:04:58;;;;;;;;;;;;;;;21.01;69.90;100687.31;7393862;19;1826;-50
2023/05/28 09:07:26;;;;;;;;;;;;;;;20.93;70.42;100681.84;7394168;19;1708;-51
2023/05/28 09:09:58;;;;;;;;;;;;;;;20.96;70.28;100678.84;7394989;19;1596;-51
2023/05/28 09:12:26;;;;;;;;;;;;;;;21.18;69.80;100660.59;7393828;19;1582;-51
2023/05/28 09:14:55;;;;;;;;;;;;;;;21.02;70.09;100670.19;7394660;19;1661;-51
2023/05/28 09:17:36;;;;;;;;;;;;;;;20.96;70.38;100668.09;7393639;19;1652;-51
2023/05/28 09:20:11;;;;;;;;;;;;;;;21.18;69.65;100660.59;7392567;19;1578;-50
2023/05/28 09:22:40;;;;;;;;;;;;;;;21.31;69.13;100682.59;7394273;19;1486;-49
2023/05/28 09:25:11;;;;;;;;;;;;;;;21.01;69.77;100654.22;7389420;19;1964;-51
2023/05/28 09:27:40;;;;;;;;;;;;;;;20.99;70.26;100681.25;7387464;19;1486;-51
2023/05/28 09:30:10;;;;;;;;;;;;;;;21.12;69.79;100659.38;7390407;19;1345;-51
2023/05/28 09:32:38;;;;;;;;;;;;;;;21.28;69.58;100671.28;7391977;19;1476;-50
2023/05/28 09:35:07;;;;;;;;;;;;;;;21.31;69.63;100660.22;7389181;19;1346;-49
2023/05/28 09:37:36;;;;;;;;;;;;;;;21.30;69.99;100654.00;7390785;19;1442;-50
2023/05/28 09:40:07;;;;;;;;;;;;;;;21.38;69.30;100666.69;7393163;19;1252;-51
2023/05/28 09:42:42;;;;;;;;;;;;;;;21.36;69.87;100647.16;7400212;19;1474;-50
2023/05/28 09:45:12;;;;;;;;;;;;;;;21.53;69.35;100661.66;7399169;19;1868;-51
2023/05/28 09:47:44;;;;;;;;;;;;;;;21.48;70.74;100645.13;7398918;19;1573;-52
2023/05/28 09:50:12;;;;;;;;;;;;;;;21.45;70.89;100657.88;7401713;19;1490;-50
2023/05/28 09:52:42;;;;;;;;;;;;;;;21.51;71.39;100660.97;7399098;19;1947;-52
2023/05/28 09:55:10;;;;;;;;;;;;;;;21.62;71.17;100652.63;7396388;19;1612;-51
2023/05/28 09:57:43;;;;;;;;;;;;;;;21.50;71.43;100656.56;7397548;19;1422;-48
2023/05/28 10:00:19;;;;;;;;;;;;;;;21.54;71.59;100666.84;7397469;19;1540;-48
2023/05/28 10:02:51;;;;;;;;;;;;;;;21.72;71.08;100642.63;7398127;19;1419;-48
2023/05/28 10:05:22;;;;;;;;;;;;;;;21.56;71.99;100637.13;7397084;19;1847;-50
2023/05/28 10:07:51;;;;;;;;;;;;;;;21.41;72.36;100643.03;7397661;19;1701;-50
2023/05/28 10:10:21;;;;;;;;;;;;;;;21.47;71.81;100659.56;7394133;19;1453;-50
2023/05/28 10:12:54;;;;;;;;;;;;;;;21.54;71.49;100641.81;7396569;19;1260;-51
2023/05/28 10:15:23;;;;;;;;;;;;;;;21.56;71.63;100626.34;7399056;19;1602;-51
2023/05/28 10:17:52;;;;;;;;;;;;;;;21.60;70.69;100627.72;7397432;19;1483;-49
2023/05/28 10:20:20;;;;;;;;;;;;;;;21.53;71.31;100624.00;7399432;19;1573;-51
2023/05/28 10:22:50;;;;;;;;;;;;;;;21.72;70.80;100625.63;7398478;19;1624;-51
2023/05/28 10:25:18;;;;;;;;;;;;;;;21.88;70.13;100627.59;7396145;19;1857;-51
2023/05/28 10:27:48;;;;;;;;;;;;;;;21.59;70.99;100620.66;7398575;19;1672;-51
2023/05/28 10:30:31;;;;;;;;;;;;;;;21.60;71.52;100617.81;7400603;19;1411;-49
2023/05/28 10:33:02;;;;;;;;;;;;;;;21.42;72.21;100620.47;7399592;19;1770;-50
2023/05/28 10:35:30;;;;;;;;;;;;;;;21.26;72.50;100618.50;7398395;19;1617;-50
2023/05/28 10:38:05;;;;;;;;;;;;;;;21.22;72.54;100610.91;7399281;19;1700;-49
2023/05/28 10:40:34;;;;;;;;;;;;;;;21.30;72.40;100605.59;7397870;19;1593;-48
2023/05/28 10:43:03;;;;;;;;;;;;;;;21.54;71.93;100610.34;7396096;19;1371;-49
2023/05/28 10:45:37;;;;;;;;;;;;;;;21.41;72.07;100594.59;7396060;19;1862;-49
2023/05/28 10:48:08;;;;;;;;;;;;;;;21.42;71.97;100595.44;7396951;19;1414;-48
2023/05/28 10:50:57;;;;;;;;;;;;;;;21.39;72.29;100588.53;7398905;19;1279;-51
2023/05/28 10:53:27;;;;;;;;;;;;;;;21.41;72.90;100585.69;7398077;19;1573;-49
2023/05/28 10:55:56;;;;;;;;;;;;;;;21.36;72.41;100598.75;7397734;19;1580;-50
2023/05/28 10:58:27;;;;;;;;;;;;;;;21.42;72.15;100582.81;7399515;19;1655;-50
2023/05/28 11:01:02;;;;;;;;;;;;;;;21.39;72.36;100582.31;7399792;19;1396;-49
2023/05/28 11:03:48;;;;;;;;;;;;;;;21.43;72.24;100589.09;7399421;19;1545;-48
2023/05/28 11:06:16;;;;;;;;;;;;;;;21.44;72.45;100586.22;7396449;19;1880;-48
2023/05/28 11:08:46;;;;;;;;;;;;;;;21.54;72.22;100574.53;7397203;19;1636;-46
2023/05/28 11:11:15;;;;;;;;;;;;;;;21.45;72.30;100569.09;7397190;19;1971;-47
2023/05/28 11:13:44;;;;;;;;;;;;;;;21.30;73.22;100573.31;7396542;19;1715;-46
2023/05/28 11:16:13;;;;;;;;;;;;;;;21.33;72.94;100573.00;7398055;19;1993;-52
2023/05/28 11:18:42;;;;;;;;;;;;;;;21.29;73.19;100574.31;7395968;19;1669;-52
2023/05/28 11:21:13;;;;;;;;;;;;;;;21.42;72.60;100571.22;6871810;19;9999890;-50
2023/05/28 11:23:41;;;;;;;;;;;;;;;21.35;72.58;100571.00;7388141;19;1414;-50
2023/05/28 11:26:23;;;;;;;;;;;;;;;21.24;72.87;100571.25;7388507;19;1845;-49
2023/05/28 11:28:51;;;;;;;;;;;;;;;21.23;73.07;100561.50;7390711;19;1649;-50
2023/05/28 11:31:20;;;;;;;;;;;;;;;21.20;73.03;100557.25;7389788;19;1827;-50
2023/05/28 11:33:50;;;;;;;;;;;;;;;21.22;72.69;100566.00;7388940;19;1613;-50
2023/05/28 11:36:22;;;;;;;;;;;;;;;21.38;72.09;100562.63;7390601;19;1328;-50
2023/05/28 11:39:02;;;;;;;;;;;;;;;21.36;71.93;100550.31;7390508;19;1842;-50
2023/05/28 11:41:31;;;;;;;;;;;;;;;21.27;72.51;100544.06;7389520;19;1495;-50
2023/05/28 11:43:59;;;;;;;;;;;;;;;21.29;72.48;100562.69;7389026;19;1609;-52
2023/05/28 11:46:28;;;;;;;;;;;;;;;21.24;72.74;100544.34;7388365;19;1857;-51
2023/05/28 11:48:56;;;;;;;;;;;;;;;21.28;72.27;100524.22;7388228;19;1574;-51
2023/05/28 11:51:27;;;;;;;;;;;;;;;21.34;72.36;100531.66;7390069;19;1487;-51
2023/05/28 11:53:56;;;;;;;;;;;;;;;21.38;72.04;100545.63;7388647;19;1750;-52
2023/05/28 11:56:25;;;;;;;;;;;;;;;21.41;71.48;100537.28;7389714;19;1525;-51
2023/05/28 11:58:54;;;;;;;;;;;;;;;21.52;71.38;100538.88;7389331;19;1577;-51
2023/05/28 12:01:22;;;;;;;;;;;;;;;21.53;70.98;100525.28;7389187;19;1842;-52
2023/05/28 12:03:51;;;;;;;;;;;;;;;21.55;71.44;100544.78;7387492;19;1601;-51
2023/05/28 12:06:19;;;;;;;;;;;;;;;21.54;71.38;100531.50;7389534;19;1859;-51
2023/05/28 12:08:50;;;;;;;;;;;;;;;21.45;71.68;100526.06;7387711;19;1775;-51
2023/05/28 12:11:18;;;;;;;;;;;;;;;21.49;71.28;100526.59;7388410;19;1401;-50
2023/05/28 12:13:47;;;;;;;;;;;;;;;21.50;71.22;100513.97;7387964;19;1683;-51
2023/05/28 12:16:15;;;;;;;;;;;;;;;21.48;71.55;100527.56;7389198;19;1466;-51
2023/05/28 12:18:44;;;;;;;;;;;;;;;21.54;71.29;100531.50;7388272;19;1494;-51
2023/05/28 12:21:13;;;;;;;;;;;;;;;21.53;71.12;100529.81;7389162;19;2373;-51
2023/05/28 12:23:41;;;;;;;;;;;;;;;21.53;71.31;100519.06;7387368;19;1574;-51
2023/05/28 12:26:14;;;;;;;;;;;;;;;21.51;71.34;100518.38;7387571;19;1841;-51
2023/05/28 12:28:42;;;;;;;;;;;;;;;21.53;71.34;100508.28;7389209;19;1454;-51
2023/05/28 12:31:11;;;;;;;;;;;;;;;21.53;71.16;100513.69;7388394;19;1818;-51
2023/05/28 12:33:39;;;;;;;;;;;;;;;21.52;71.21;100498.53;7387126;19;1680;-52
2023/05/28 12:36:08;;;;;;;;;;;;;;;21.37;71.84;100509.00;7389930;19;1734;-55
2023/05/28 12:38:36;;;;;;;;;;;;;;;21.34;72.06;100510.13;7388141;19;1462;-55
2023/05/28 12:41:04;;;;;;;;;;;;;;;21.34;71.80;100498.53;7389179;19;1642;-51
2023/05/28 12:43:35;;;;;;;;;;;;;;;21.48;71.58;100521.38;7387831;19;1671;-51
2023/05/28 12:46:04;;;;;;;;;;;;;;;21.31;71.85;100494.31;7386043;19;1874;-51
2023/05/28 12:48:32;;;;;;;;;;;;;;;21.23;72.11;100516.63;7387812;19;1800;-51
2023/05/28 12:51:00;;;;;;;;;;;;;;;21.33;71.85;100507.59;7388175;19;1477;-52
2023/05/28 12:53:28;;;;;;;;;;;;;;;21.28;71.68;100510.75;7388094;19;1446;-51
2023/05/28 12:55:57;;;;;;;;;;;;;;;21.48;71.14;100515.97;7388920;19;1419;-51